sensor_id;sensor_type;location;lat;lon;timestamp;pressure;altitude;pressure_sealevel;temperature;humidity
31331;BME280;34067;39.548;-76.088;2024-02-21T00:01:35;102953.64;;;5.97;38.44
31331;BME280;34067;39.548;-76.088;2024-02-21T00:04:03;102954.85;;;6.16;37.88
31331;BME280;34067;39.548;-76.088;2024-02-21T00:06:31;102951.85;;;5.78;37.62
31331;BME280;34067;39.548;-76.088;2024-02-21T00:08:59;102953.01;;;5.44;37.86
31331;BME280;34067;39.548;-76.088;2024-02-21T00:11:28;102954.12;;;5.87;37.87
31331;BME280;34067;39.548;-76.088;2024-02-21T00:13:56;102954.15;;;5.59;38.09
31331;BME280;34067;39.548;-76.088;2024-02-21T00:16:24;102955.46;;;6.31;37.97
31331;BME280;34067;39.548;-76.088;2024-02-21T00:18:52;102952.92;;;6.00;36.96
31331;BME280;34067;39.548;-76.088;2024-02-21T00:21:19;102956.71;;;6.52;37.01
31331;BME280;34067;39.548;-76.088;2024-02-21T00:23:47;102959.54;;;5.48;38.15
31331;BME280;34067;39.548;-76.088;2024-02-21T00:26:15;102961.90;;;5.36;39.14
31331;BME280;34067;39.548;-76.088;2024-02-21T00:28:43;102960.93;;;5.67;39.57
31331;BME280;34067;39.548;-76.088;2024-02-21T00:31:12;102959.70;;;5.32;39.82
31331;BME280;34067;39.548;-76.088;2024-02-21T00:33:40;102957.98;;;5.76;37.58
31331;BME280;34067;39.548;-76.088;2024-02-21T00:36:08;102960.37;;;6.07;38.48
31331;BME280;34067;39.548;-76.088;2024-02-21T00:38:36;102959.08;;;5.72;38.32
31331;BME280;34067;39.548;-76.088;2024-02-21T00:41:04;102962.57;;;5.09;38.93
31331;BME280;34067;39.548;-76.088;2024-02-21T00:43:32;102964.77;;;5.16;38.11
31331;BME280;34067;39.548;-76.088;2024-02-21T00:46:00;102968.46;;;4.84;39.27
31331;BME280;34067;39.548;-76.088;2024-02-21T00:48:27;102971.77;;;4.09;41.43
31331;BME280;34067;39.548;-76.088;2024-02-21T00:50:55;102974.11;;;3.80;43.35
31331;BME280;34067;39.548;-76.088;2024-02-21T00:53:24;102979.74;;;3.42;45.53
31331;BME280;34067;39.548;-76.088;2024-02-21T00:55:52;102985.96;;;2.48;47.37
31331;BME280;34067;39.548;-76.088;2024-02-21T00:58:20;102985.04;;;3.23;46.71
31331;BME280;34067;39.548;-76.088;2024-02-21T01:00:49;102985.17;;;3.33;47.74
31331;BME280;34067;39.548;-76.088;2024-02-21T01:03:16;102986.66;;;4.02;47.71
31331;BME280;34067;39.548;-76.088;2024-02-21T01:05:44;102989.69;;;2.75;49.30
31331;BME280;34067;39.548;-76.088;2024-02-21T01:08:12;102991.86;;;3.72;47.54
31331;BME280;34067;39.548;-76.088;2024-02-21T01:10:40;102994.73;;;3.52;47.88
31331;BME280;34067;39.548;-76.088;2024-02-21T01:13:08;102999.04;;;3.91;48.12
31331;BME280;34067;39.548;-76.088;2024-02-21T01:15:36;102999.96;;;2.63;49.88
31331;BME280;34067;39.548;-76.088;2024-02-21T01:18:04;103007.65;;;2.89;48.49
31331;BME280;34067;39.548;-76.088;2024-02-21T01:20:32;103010.40;;;3.07;48.06
31331;BME280;34067;39.548;-76.088;2024-02-21T01:23:00;103012.84;;;3.22;49.15
31331;BME280;34067;39.548;-76.088;2024-02-21T01:25:27;103023.33;;;2.17;49.59
31331;BME280;34067;39.548;-76.088;2024-02-21T01:27:55;103018.27;;;2.83;48.75
31331;BME280;34067;39.548;-76.088;2024-02-21T01:30:23;103021.00;;;2.82;48.89
31331;BME280;34067;39.548;-76.088;2024-02-21T01:32:50;103021.97;;;2.17;50.37
31331;BME280;34067;39.548;-76.088;2024-02-21T01:35:18;103024.51;;;2.37;49.69
31331;BME280;34067;39.548;-76.088;2024-02-21T01:37:45;103030.24;;;2.82;49.66
31331;BME280;34067;39.548;-76.088;2024-02-21T01:40:14;103033.21;;;2.88;49.26
31331;BME280;34067;39.548;-76.088;2024-02-21T01:42:42;103034.29;;;3.27;48.16
31331;BME280;34067;39.548;-76.088;2024-02-21T01:45:10;103038.33;;;2.67;47.83
31331;BME280;34067;39.548;-76.088;2024-02-21T01:47:38;103039.13;;;3.46;47.26
31331;BME280;34067;39.548;-76.088;2024-02-21T01:50:07;103047.88;;;3.10;48.41
31331;BME280;34067;39.548;-76.088;2024-02-21T01:52:36;103050.17;;;2.41;47.81
31331;BME280;34067;39.548;-76.088;2024-02-21T01:55:05;103050.59;;;3.34;48.38
31331;BME280;34067;39.548;-76.088;2024-02-21T01:57:33;103057.01;;;2.50;49.64
31331;BME280;34067;39.548;-76.088;2024-02-21T02:00:02;103058.38;;;3.18;48.88
31331;BME280;34067;39.548;-76.088;2024-02-21T02:02:30;103060.85;;;2.48;48.68
31331;BME280;34067;39.548;-76.088;2024-02-21T02:04:59;103062.99;;;2.52;49.43
31331;BME280;34067;39.548;-76.088;2024-02-21T02:07:27;103069.83;;;2.63;48.85
31331;BME280;34067;39.548;-76.088;2024-02-21T02:09:54;103068.68;;;1.73;49.80
31331;BME280;34067;39.548;-76.088;2024-02-21T02:12:22;103071.46;;;1.95;51.01
31331;BME280;34067;39.548;-76.088;2024-02-21T02:14:58;103079.49;;;1.76;50.67
31331;BME280;34067;39.548;-76.088;2024-02-21T02:17:26;103081.50;;;1.18;52.35
31331;BME280;34067;39.548;-76.088;2024-02-21T02:19:54;103083.57;;;1.55;51.11
31331;BME280;34067;39.548;-76.088;2024-02-21T02:22:27;103083.35;;;2.05;51.40
31331;BME280;34067;39.548;-76.088;2024-02-21T02:24:56;103084.99;;;2.14;50.07
31331;BME280;34067;39.548;-76.088;2024-02-21T02:27:24;103084.34;;;1.78;51.09
31331;BME280;34067;39.548;-76.088;2024-02-21T02:29:52;103086.36;;;2.42;50.35
31331;BME280;34067;39.548;-76.088;2024-02-21T02:32:19;103084.44;;;2.47;50.13
31331;BME280;34067;39.548;-76.088;2024-02-21T02:34:47;103081.70;;;1.87;50.35
31331;BME280;34067;39.548;-76.088;2024-02-21T02:37:14;103083.92;;;2.33;50.05
31331;BME280;34067;39.548;-76.088;2024-02-21T02:39:42;103084.32;;;0.86;50.78
31331;BME280;34067;39.548;-76.088;2024-02-21T02:42:11;103086.85;;;1.23;51.73
31331;BME280;34067;39.548;-76.088;2024-02-21T02:44:39;103080.40;;;1.46;51.14
31331;BME280;34067;39.548;-76.088;2024-02-21T02:47:08;103083.53;;;1.78;50.16
31331;BME280;34067;39.548;-76.088;2024-02-21T02:49:36;103086.35;;;1.74;50.40
31331;BME280;34067;39.548;-76.088;2024-02-21T02:52:04;103092.06;;;1.02;53.41
31331;BME280;34067;39.548;-76.088;2024-02-21T02:54:32;103096.34;;;-0.12;55.63
31331;BME280;34067;39.548;-76.088;2024-02-21T02:56:59;103098.21;;;0.57;54.87
31331;BME280;34067;39.548;-76.088;2024-02-21T02:59:27;103098.52;;;0.10;57.60
31331;BME280;34067;39.548;-76.088;2024-02-21T03:01:54;103105.96;;;-0.46;56.12
31331;BME280;34067;39.548;-76.088;2024-02-21T03:04:22;103114.11;;;-1.19;60.41
31331;BME280;34067;39.548;-76.088;2024-02-21T03:06:49;103107.59;;;-0.61;57.51
31331;BME280;34067;39.548;-76.088;2024-02-21T03:09:17;103114.94;;;-1.36;59.10
31331;BME280;34067;39.548;-76.088;2024-02-21T03:11:45;103118.45;;;-1.55;61.15
31331;BME280;34067;39.548;-76.088;2024-02-21T03:14:13;103121.93;;;-1.07;60.28
31331;BME280;34067;39.548;-76.088;2024-02-21T03:16:41;103123.24;;;-1.44;60.01
31331;BME280;34067;39.548;-76.088;2024-02-21T03:19:09;103127.88;;;-1.23;60.29
31331;BME280;34067;39.548;-76.088;2024-02-21T03:21:36;103126.31;;;-1.75;60.82
31331;BME280;34067;39.548;-76.088;2024-02-21T03:24:05;103128.42;;;-1.40;60.77
31331;BME280;34067;39.548;-76.088;2024-02-21T03:26:32;103130.22;;;-1.52;61.11
31331;BME280;34067;39.548;-76.088;2024-02-21T03:29:00;103128.39;;;-1.27;59.70
31331;BME280;34067;39.548;-76.088;2024-02-21T03:31:28;103130.76;;;-1.85;60.39
31331;BME280;34067;39.548;-76.088;2024-02-21T03:33:56;103126.95;;;-0.54;60.85
31331;BME280;34067;39.548;-76.088;2024-02-21T03:36:23;103130.85;;;-0.90;61.19
31331;BME280;34067;39.548;-76.088;2024-02-21T03:38:51;103129.04;;;-1.38;60.00
31331;BME280;34067;39.548;-76.088;2024-02-21T03:41:18;103127.13;;;-0.67;59.83
31331;BME280;34067;39.548;-76.088;2024-02-21T03:43:46;103121.37;;;-1.83;61.48
31331;BME280;34067;39.548;-76.088;2024-02-21T03:46:15;103128.42;;;-1.46;61.67
31331;BME280;34067;39.548;-76.088;2024-02-21T03:48:43;103121.66;;;-1.24;59.96
31331;BME280;34067;39.548;-76.088;2024-02-21T03:51:10;103127.12;;;-1.33;59.64
31331;BME280;34067;39.548;-76.088;2024-02-21T03:53:38;103127.21;;;-0.81;59.68
31331;BME280;34067;39.548;-76.088;2024-02-21T03:56:06;103124.76;;;-0.54;56.65
31331;BME280;34067;39.548;-76.088;2024-02-21T03:58:34;103120.64;;;0.01;54.32
31331;BME280;34067;39.548;-76.088;2024-02-21T04:01:02;103120.29;;;0.32;53.34
31331;BME280;34067;39.548;-76.088;2024-02-21T04:03:31;103123.18;;;-0.23;55.29
31331;BME280;34067;39.548;-76.088;2024-02-21T04:05:58;103123.03;;;-0.07;54.61
31331;BME280;34067;39.548;-76.088;2024-02-21T04:08:26;103132.06;;;-1.22;56.31
31331;BME280;34067;39.548;-76.088;2024-02-21T04:10:53;103126.18;;;-0.80;53.93
31331;BME280;34067;39.548;-76.088;2024-02-21T04:13:22;103137.90;;;-1.09;58.05
31331;BME280;34067;39.548;-76.088;2024-02-21T04:15:49;103132.25;;;-0.96;54.57
31331;BME280;34067;39.548;-76.088;2024-02-21T04:18:17;103129.40;;;0.34;53.84
31331;BME280;34067;39.548;-76.088;2024-02-21T04:20:46;103128.86;;;-0.93;54.44
31331;BME280;34067;39.548;-76.088;2024-02-21T04:23:14;103128.55;;;0.03;53.11
31331;BME280;34067;39.548;-76.088;2024-02-21T04:25:41;103127.20;;;-0.00;51.73
31331;BME280;34067;39.548;-76.088;2024-02-21T04:28:10;103125.76;;;0.18;51.68
31331;BME280;34067;39.548;-76.088;2024-02-21T04:30:37;103126.13;;;0.12;52.21
31331;BME280;34067;39.548;-76.088;2024-02-21T04:33:06;103123.76;;;0.76;51.28
31331;BME280;34067;39.548;-76.088;2024-02-21T04:35:33;103123.80;;;-0.14;52.60
31331;BME280;34067;39.548;-76.088;2024-02-21T04:38:03;103123.96;;;0.23;51.18
31331;BME280;34067;39.548;-76.088;2024-02-21T04:40:31;103123.97;;;-0.07;49.93
31331;BME280;34067;39.548;-76.088;2024-02-21T04:42:59;103122.83;;;0.55;49.01
31331;BME280;34067;39.548;-76.088;2024-02-21T04:45:26;103124.79;;;1.38;49.37
31331;BME280;34067;39.548;-76.088;2024-02-21T04:47:54;103124.01;;;1.33;48.52
31331;BME280;34067;39.548;-76.088;2024-02-21T04:50:21;103125.28;;;1.05;48.52
31331;BME280;34067;39.548;-76.088;2024-02-21T04:52:49;103122.49;;;1.35;48.44
31331;BME280;34067;39.548;-76.088;2024-02-21T04:55:16;103125.62;;;1.38;49.02
31331;BME280;34067;39.548;-76.088;2024-02-21T04:57:44;103128.32;;;0.97;47.70
31331;BME280;34067;39.548;-76.088;2024-02-21T05:00:13;103129.59;;;1.32;48.02
31331;BME280;34067;39.548;-76.088;2024-02-21T05:02:41;103123.40;;;1.69;47.09
31331;BME280;34067;39.548;-76.088;2024-02-21T05:05:08;103125.55;;;2.14;46.96
31331;BME280;34067;39.548;-76.088;2024-02-21T05:07:36;103125.34;;;1.25;47.16
31331;BME280;34067;39.548;-76.088;2024-02-21T05:10:04;103121.67;;;1.58;46.86
31331;BME280;34067;39.548;-76.088;2024-02-21T05:12:32;103122.38;;;1.63;46.32
31331;BME280;34067;39.548;-76.088;2024-02-21T05:15:00;103122.36;;;1.75;46.53
31331;BME280;34067;39.548;-76.088;2024-02-21T05:17:27;103121.79;;;1.07;46.77
31331;BME280;34067;39.548;-76.088;2024-02-21T05:19:55;103122.56;;;1.51;47.31
31331;BME280;34067;39.548;-76.088;2024-02-21T05:22:23;103130.30;;;1.93;45.90
31331;BME280;34067;39.548;-76.088;2024-02-21T05:24:51;103128.91;;;1.39;47.21
31331;BME280;34067;39.548;-76.088;2024-02-21T05:27:19;103128.18;;;1.73;47.25
31331;BME280;34067;39.548;-76.088;2024-02-21T05:29:47;103130.47;;;0.69;47.14
31331;BME280;34067;39.548;-76.088;2024-02-21T05:32:14;103122.39;;;1.74;47.39
31331;BME280;34067;39.548;-76.088;2024-02-21T05:34:42;103123.94;;;0.98;47.88
31331;BME280;34067;39.548;-76.088;2024-02-21T05:37:10;103125.16;;;0.25;48.76
31331;BME280;34067;39.548;-76.088;2024-02-21T05:39:37;103125.38;;;0.06;48.09
31331;BME280;34067;39.548;-76.088;2024-02-21T05:42:05;103124.32;;;0.40;49.79
31331;BME280;34067;39.548;-76.088;2024-02-21T05:44:33;103127.22;;;0.12;49.96
31331;BME280;34067;39.548;-76.088;2024-02-21T05:47:01;103126.42;;;0.11;48.56
31331;BME280;34067;39.548;-76.088;2024-02-21T05:49:29;103122.77;;;0.07;47.98
31331;BME280;34067;39.548;-76.088;2024-02-21T05:51:56;103121.48;;;-0.00;49.38
31331;BME280;34067;39.548;-76.088;2024-02-21T05:54:24;103122.33;;;-0.11;48.93
31331;BME280;34067;39.548;-76.088;2024-02-21T05:56:51;103125.90;;;-0.94;49.82
31331;BME280;34067;39.548;-76.088;2024-02-21T05:59:19;103121.65;;;-0.41;50.02
31331;BME280;34067;39.548;-76.088;2024-02-21T06:03:11;103125.88;;;-0.07;49.78
31331;BME280;34067;39.548;-76.088;2024-02-21T06:05:39;103129.34;;;-0.06;48.71
31331;BME280;34067;39.548;-76.088;2024-02-21T06:08:07;103130.50;;;-0.11;49.16
31331;BME280;34067;39.548;-76.088;2024-02-21T06:10:35;103127.72;;;-0.19;48.28
31331;BME280;34067;39.548;-76.088;2024-02-21T06:13:03;103126.27;;;-0.54;48.06
31331;BME280;34067;39.548;-76.088;2024-02-21T06:15:31;103123.47;;;-0.36;49.86
31331;BME280;34067;39.548;-76.088;2024-02-21T06:17:58;103121.03;;;-0.35;49.75
31331;BME280;34067;39.548;-76.088;2024-02-21T06:20:26;103118.90;;;0.08;49.51
31331;BME280;34067;39.548;-76.088;2024-02-21T06:22:54;103114.37;;;-0.63;49.77
31331;BME280;34067;39.548;-76.088;2024-02-21T06:25:23;103110.77;;;-0.31;49.67
31331;BME280;34067;39.548;-76.088;2024-02-21T06:27:50;103110.00;;;-1.34;50.02
31331;BME280;34067;39.548;-76.088;2024-02-21T06:30:18;103108.93;;;-0.25;50.70
31331;BME280;34067;39.548;-76.088;2024-02-21T06:32:45;103103.92;;;-0.74;50.77
31331;BME280;34067;39.548;-76.088;2024-02-21T06:35:13;103101.50;;;-0.78;49.83
31331;BME280;34067;39.548;-76.088;2024-02-21T06:37:41;103102.28;;;-0.79;50.24
31331;BME280;34067;39.548;-76.088;2024-02-21T06:40:08;103094.42;;;-0.56;49.44
31331;BME280;34067;39.548;-76.088;2024-02-21T06:42:36;103091.06;;;-0.10;49.37
31331;BME280;34067;39.548;-76.088;2024-02-21T06:45:04;103088.22;;;-0.24;47.70
31331;BME280;34067;39.548;-76.088;2024-02-21T06:47:32;103090.91;;;0.51;47.75
31331;BME280;34067;39.548;-76.088;2024-02-21T06:50:00;103089.53;;;0.32;47.47
31331;BME280;34067;39.548;-76.088;2024-02-21T06:52:27;103084.92;;;0.61;46.29
31331;BME280;34067;39.548;-76.088;2024-02-21T06:54:55;103079.46;;;0.63;47.75
31331;BME280;34067;39.548;-76.088;2024-02-21T06:57:22;103080.79;;;1.10;46.38
31331;BME280;34067;39.548;-76.088;2024-02-21T06:59:50;103080.07;;;0.72;46.07
31331;BME280;34067;39.548;-76.088;2024-02-21T07:02:18;103079.88;;;0.07;47.12
31331;BME280;34067;39.548;-76.088;2024-02-21T07:04:45;103085.41;;;0.09;48.49
31331;BME280;34067;39.548;-76.088;2024-02-21T07:07:13;103082.99;;;-0.28;47.65
31331;BME280;34067;39.548;-76.088;2024-02-21T07:09:41;103081.30;;;-0.88;49.11
31331;BME280;34067;39.548;-76.088;2024-02-21T07:12:08;103078.77;;;0.14;48.37
31331;BME280;34067;39.548;-76.088;2024-02-21T07:14:36;103079.13;;;-0.36;48.46
31331;BME280;34067;39.548;-76.088;2024-02-21T07:17:04;103073.92;;;0.46;47.06
31331;BME280;34067;39.548;-76.088;2024-02-21T07:19:32;103073.04;;;0.19;46.62
31331;BME280;34067;39.548;-76.088;2024-02-21T07:22:00;103076.19;;;0.43;46.26
31331;BME280;34067;39.548;-76.088;2024-02-21T07:24:28;103080.23;;;0.55;48.59
31331;BME280;34067;39.548;-76.088;2024-02-21T07:26:56;103076.07;;;-0.54;47.95
31331;BME280;34067;39.548;-76.088;2024-02-21T07:29:23;103076.40;;;-0.78;49.31
31331;BME280;34067;39.548;-76.088;2024-02-21T07:31:51;103075.42;;;-0.24;47.51
31331;BME280;34067;39.548;-76.088;2024-02-21T07:34:19;103074.08;;;-0.15;47.47
31331;BME280;34067;39.548;-76.088;2024-02-21T07:36:46;103071.69;;;-0.27;46.83
31331;BME280;34067;39.548;-76.088;2024-02-21T07:39:14;103072.63;;;-1.00;47.45
31331;BME280;34067;39.548;-76.088;2024-02-21T07:41:41;103071.18;;;0.07;47.43
31331;BME280;34067;39.548;-76.088;2024-02-21T07:44:09;103069.34;;;-0.33;48.20
31331;BME280;34067;39.548;-76.088;2024-02-21T07:46:37;103068.37;;;0.28;47.33
31331;BME280;34067;39.548;-76.088;2024-02-21T07:49:05;103068.49;;;-0.23;47.63
31331;BME280;34067;39.548;-76.088;2024-02-21T07:51:32;103066.70;;;-0.35;47.31
31331;BME280;34067;39.548;-76.088;2024-02-21T07:54:00;103065.03;;;0.40;47.25
31331;BME280;34067;39.548;-76.088;2024-02-21T07:56:28;103062.45;;;-1.08;47.96
31331;BME280;34067;39.548;-76.088;2024-02-21T07:58:56;103064.47;;;-0.90;50.00
31331;BME280;34067;39.548;-76.088;2024-02-21T08:01:24;103060.56;;;-1.52;49.07
31331;BME280;34067;39.548;-76.088;2024-02-21T08:03:51;103055.90;;;-1.85;49.13
31331;BME280;34067;39.548;-76.088;2024-02-21T08:06:19;103053.25;;;-1.02;48.57
31331;BME280;34067;39.548;-76.088;2024-02-21T08:08:46;103046.68;;;-0.36;48.38
31331;BME280;34067;39.548;-76.088;2024-02-21T08:11:14;103041.22;;;-0.86;49.21
31331;BME280;34067;39.548;-76.088;2024-02-21T08:13:42;103041.45;;;-0.92;49.48
31331;BME280;34067;39.548;-76.088;2024-02-21T08:16:09;103041.24;;;-1.09;50.19
31331;BME280;34067;39.548;-76.088;2024-02-21T08:18:37;103038.26;;;-0.78;52.37
31331;BME280;34067;39.548;-76.088;2024-02-21T08:21:05;103035.89;;;-1.31;50.61
31331;BME280;34067;39.548;-76.088;2024-02-21T08:23:32;103037.07;;;-1.12;52.57
31331;BME280;34067;39.548;-76.088;2024-02-21T08:26:03;103038.23;;;-0.88;52.48
31331;BME280;34067;39.548;-76.088;2024-02-21T08:28:31;103037.59;;;-0.94;52.22
31331;BME280;34067;39.548;-76.088;2024-02-21T08:30:59;103036.05;;;-0.75;52.56
31331;BME280;34067;39.548;-76.088;2024-02-21T08:33:26;103034.29;;;-0.03;50.33
31331;BME280;34067;39.548;-76.088;2024-02-21T08:35:54;103030.27;;;-0.23;50.26
31331;BME280;34067;39.548;-76.088;2024-02-21T08:38:21;103030.61;;;-0.47;49.87
31331;BME280;34067;39.548;-76.088;2024-02-21T08:40:49;103028.43;;;0.46;49.16
31331;BME280;34067;39.548;-76.088;2024-02-21T08:43:17;103022.59;;;-0.32;49.87
31331;BME280;34067;39.548;-76.088;2024-02-21T08:45:45;103018.81;;;0.31;48.38
31331;BME280;34067;39.548;-76.088;2024-02-21T08:48:13;103018.68;;;0.23;49.09
31331;BME280;34067;39.548;-76.088;2024-02-21T08:50:40;103022.14;;;0.16;48.55
31331;BME280;34067;39.548;-76.088;2024-02-21T08:53:08;103016.49;;;0.76;47.79
31331;BME280;34067;39.548;-76.088;2024-02-21T08:55:35;103016.69;;;0.05;47.25
31331;BME280;34067;39.548;-76.088;2024-02-21T08:58:03;103015.88;;;0.83;48.36
31331;BME280;34067;39.548;-76.088;2024-02-21T09:00:31;103013.30;;;0.41;47.35
31331;BME280;34067;39.548;-76.088;2024-02-21T09:02:58;103012.84;;;0.75;47.75
31331;BME280;34067;39.548;-76.088;2024-02-21T09:05:26;103010.95;;;0.30;47.76
31331;BME280;34067;39.548;-76.088;2024-02-21T09:07:54;103016.77;;;0.54;47.52
31331;BME280;34067;39.548;-76.088;2024-02-21T09:10:21;103016.72;;;-0.14;48.92
31331;BME280;34067;39.548;-76.088;2024-02-21T09:12:49;103017.31;;;-0.43;49.46
31331;BME280;34067;39.548;-76.088;2024-02-21T09:15:17;103014.47;;;-0.57;49.12
31331;BME280;34067;39.548;-76.088;2024-02-21T09:17:45;103009.35;;;-0.67;49.03
31331;BME280;34067;39.548;-76.088;2024-02-21T09:20:13;103011.64;;;-0.83;49.09
31331;BME280;34067;39.548;-76.088;2024-02-21T09:22:41;103013.89;;;-0.84;49.44
31331;BME280;34067;39.548;-76.088;2024-02-21T09:25:09;103018.60;;;-1.26;49.60
31331;BME280;34067;39.548;-76.088;2024-02-21T09:27:37;103018.51;;;-1.00;49.40
31331;BME280;34067;39.548;-76.088;2024-02-21T09:30:06;103019.10;;;-0.99;49.88
31331;BME280;34067;39.548;-76.088;2024-02-21T09:32:34;103020.45;;;-0.89;50.77
31331;BME280;34067;39.548;-76.088;2024-02-21T09:35:03;103019.39;;;-0.72;50.58
31331;BME280;34067;39.548;-76.088;2024-02-21T09:37:31;103021.47;;;-0.24;52.29
31331;BME280;34067;39.548;-76.088;2024-02-21T09:39:59;103024.95;;;-0.61;50.40
31331;BME280;34067;39.548;-76.088;2024-02-21T09:42:35;103028.64;;;-1.61;52.45
31331;BME280;34067;39.548;-76.088;2024-02-21T09:45:08;103028.95;;;-1.63;51.89
31331;BME280;34067;39.548;-76.088;2024-02-21T09:47:48;103029.98;;;-1.56;52.97
31331;BME280;34067;39.548;-76.088;2024-02-21T09:50:18;103031.15;;;-2.37;56.39
31331;BME280;34067;39.548;-76.088;2024-02-21T09:52:48;103032.68;;;-2.25;54.13
31331;BME280;34067;39.548;-76.088;2024-02-21T09:55:17;103028.42;;;-1.97;54.99
31331;BME280;34067;39.548;-76.088;2024-02-21T09:57:46;103031.33;;;-1.99;56.60
31331;BME280;34067;39.548;-76.088;2024-02-21T10:00:15;103033.66;;;-1.82;54.86
31331;BME280;34067;39.548;-76.088;2024-02-21T10:02:43;103034.01;;;-3.11;57.11
31331;BME280;34067;39.548;-76.088;2024-02-21T10:05:11;103035.88;;;-2.55;55.72
31331;BME280;34067;39.548;-76.088;2024-02-21T10:07:38;103036.39;;;-2.62;56.68
31331;BME280;34067;39.548;-76.088;2024-02-21T10:10:08;103036.58;;;-1.92;56.23
31331;BME280;34067;39.548;-76.088;2024-02-21T10:12:36;103037.63;;;-3.16;57.47
31331;BME280;34067;39.548;-76.088;2024-02-21T10:15:05;103042.07;;;-2.09;58.20
31331;BME280;34067;39.548;-76.088;2024-02-21T10:17:33;103043.02;;;-2.58;57.38
31331;BME280;34067;39.548;-76.088;2024-02-21T10:20:07;103044.86;;;-2.33;57.72
31331;BME280;34067;39.548;-76.088;2024-02-21T10:22:35;103043.02;;;-2.17;56.73
31331;BME280;34067;39.548;-76.088;2024-02-21T10:25:08;103041.70;;;-3.02;58.67
31331;BME280;34067;39.548;-76.088;2024-02-21T10:27:37;103044.78;;;-1.64;58.20
31331;BME280;34067;39.548;-76.088;2024-02-21T10:30:06;103046.25;;;-2.87;57.74
31331;BME280;34067;39.548;-76.088;2024-02-21T10:32:35;103051.42;;;-2.79;57.51
31331;BME280;34067;39.548;-76.088;2024-02-21T10:35:03;103059.58;;;-2.25;58.47
31331;BME280;34067;39.548;-76.088;2024-02-21T10:37:32;103061.04;;;-2.54;60.31
31331;BME280;34067;39.548;-76.088;2024-02-21T10:40:00;103058.08;;;-2.69;59.16
31331;BME280;34067;39.548;-76.088;2024-02-21T10:42:29;103058.01;;;-2.71;58.50
31331;BME280;34067;39.548;-76.088;2024-02-21T10:45:01;103058.09;;;-3.03;58.65
31331;BME280;34067;39.548;-76.088;2024-02-21T10:47:30;103059.08;;;-2.71;56.54
31331;BME280;34067;39.548;-76.088;2024-02-21T10:50:03;103059.39;;;-2.60;58.00
31331;BME280;34067;39.548;-76.088;2024-02-21T10:52:40;103060.42;;;-3.04;59.90
31331;BME280;34067;39.548;-76.088;2024-02-21T10:55:20;103064.91;;;-3.48;63.51
31331;BME280;34067;39.548;-76.088;2024-02-21T10:57:48;103067.42;;;-2.59;65.16
31331;BME280;34067;39.548;-76.088;2024-02-21T11:00:18;103075.45;;;-3.28;66.62
31331;BME280;34067;39.548;-76.088;2024-02-21T11:02:47;103078.52;;;-2.52;67.96
31331;BME280;34067;39.548;-76.088;2024-02-21T11:05:16;103077.37;;;-2.93;69.25
31331;BME280;34067;39.548;-76.088;2024-02-21T11:07:45;103082.28;;;-3.26;69.28
31331;BME280;34067;39.548;-76.088;2024-02-21T11:10:23;103088.32;;;-3.47;70.59
31331;BME280;34067;39.548;-76.088;2024-02-21T11:12:53;103091.02;;;-3.82;70.80
31331;BME280;34067;39.548;-76.088;2024-02-21T11:15:26;103086.12;;;-3.88;70.36
31331;BME280;34067;39.548;-76.088;2024-02-21T11:17:56;103082.73;;;-3.40;73.55
31331;BME280;34067;39.548;-76.088;2024-02-21T11:20:32;103074.92;;;-2.83;71.85
31331;BME280;34067;39.548;-76.088;2024-02-21T11:23:01;103071.70;;;-3.07;72.09
31331;BME280;34067;39.548;-76.088;2024-02-21T11:25:29;103073.16;;;-3.26;69.84
31331;BME280;34067;39.548;-76.088;2024-02-21T11:28:01;103071.19;;;-4.14;70.05
31331;BME280;34067;39.548;-76.088;2024-02-21T11:30:31;103078.32;;;-3.46;70.66
31331;BME280;34067;39.548;-76.088;2024-02-21T11:33:01;103082.54;;;-3.89;70.77
31331;BME280;34067;39.548;-76.088;2024-02-21T11:35:32;103079.35;;;-3.69;68.48
31331;BME280;34067;39.548;-76.088;2024-02-21T11:38:16;103082.27;;;-4.10;68.54
31331;BME280;34067;39.548;-76.088;2024-02-21T11:40:46;103085.88;;;-4.11;70.71
31331;BME280;34067;39.548;-76.088;2024-02-21T11:43:15;103085.35;;;-4.91;69.06
31331;BME280;34067;39.548;-76.088;2024-02-21T11:45:42;103093.68;;;-3.59;68.42
31331;BME280;34067;39.548;-76.088;2024-02-21T11:48:10;103092.47;;;-4.79;69.48
31331;BME280;34067;39.548;-76.088;2024-02-21T11:50:38;103089.35;;;-3.98;67.96
31331;BME280;34067;39.548;-76.088;2024-02-21T11:53:06;103094.75;;;-4.00;68.56
31331;BME280;34067;39.548;-76.088;2024-02-21T11:55:34;103094.63;;;-4.56;71.35
31331;BME280;34067;39.548;-76.088;2024-02-21T11:58:01;103099.27;;;-3.88;69.98
31331;BME280;34067;39.548;-76.088;2024-02-21T12:00:29;103103.04;;;-3.75;69.46
31331;BME280;34067;39.548;-76.088;2024-02-21T12:02:58;103101.37;;;-3.82;69.99
31331;BME280;34067;39.548;-76.088;2024-02-21T12:05:26;103096.73;;;-4.35;67.69
31331;BME280;34067;39.548;-76.088;2024-02-21T12:07:54;103093.55;;;-3.99;70.61
31331;BME280;34067;39.548;-76.088;2024-02-21T12:10:22;103094.59;;;-4.21;70.32
31331;BME280;34067;39.548;-76.088;2024-02-21T12:12:49;103096.34;;;-3.99;71.44
31331;BME280;34067;39.548;-76.088;2024-02-21T12:15:18;103097.03;;;-3.76;69.96
31331;BME280;34067;39.548;-76.088;2024-02-21T12:17:47;103094.21;;;-4.02;71.59
31331;BME280;34067;39.548;-76.088;2024-02-21T12:20:15;103095.51;;;-4.84;73.51
31331;BME280;34067;39.548;-76.088;2024-02-21T12:22:43;103090.59;;;-4.45;73.76
31331;BME280;34067;39.548;-76.088;2024-02-21T12:25:19;103090.30;;;-4.26;73.86
31331;BME280;34067;39.548;-76.088;2024-02-21T12:27:49;103092.06;;;-3.71;71.88
31331;BME280;34067;39.548;-76.088;2024-02-21T12:30:17;103089.47;;;-4.18;71.21
31331;BME280;34067;39.548;-76.088;2024-02-21T12:32:46;103088.33;;;-3.40;71.29
31331;BME280;34067;39.548;-76.088;2024-02-21T12:35:13;103090.95;;;-3.80;71.32
31331;BME280;34067;39.548;-76.088;2024-02-21T12:37:42;103086.80;;;-3.71;68.82
31331;BME280;34067;39.548;-76.088;2024-02-21T12:40:10;103093.78;;;-2.90;70.28
31331;BME280;34067;39.548;-76.088;2024-02-21T12:42:38;103091.25;;;-3.18;68.37